Time;durP1;ratioP1;P1;durP2;ratioP2;P2;SDS_P1;SDS_P2;PMS_P1;PMS_P2;Temp;Humidity;BMP_temperature;BMP_pressure;BME280_temperature;BME280_humidity;BME280_pressure;Samples;Min_cycle;Max_cycle;Signal;HPM_P1;HPM_P2
2021/10/28 00:12:50;;;;;;;9.95;6.53;;;;;;;8.29;100.00;99749.34;5012341;28;20325;-61
2021/10/28 00:15:38;;;;;;;11.63;6.63;;;;;;;8.23;100.00;99749.44;5020808;28;20056;-59
2021/10/28 00:19:27;;;;;;;15.13;7.53;;;;;;;8.15;100.00;99743.31;5012486;28;20052;-63
2021/10/28 00:21:39;;;;;;;13.80;7.32;;;;;;;8.06;100.00;99730.19;5009536;28;20053;-61
2021/10/28 00:24:23;;;;;;;11.98;6.85;;;;;;;8.15;100.00;99730.13;5011210;28;20613;-70
2021/10/28 00:27:09;;;;;;;16.30;7.68;;;;;;;8.19;100.00;99734.47;5019001;28;20504;-69
2021/10/28 00:29:54;;;;;;;17.33;8.02;;;;;;;8.19;100.00;99732.69;5012286;28;20068;-65
2021/10/28 00:32:39;;;;;;;16.67;8.35;;;;;;;8.18;100.00;99727.41;5025540;28;20052;-62
2021/10/28 00:35:24;;;;;;;13.75;8.27;;;;;;;8.20;100.00;99725.66;5028169;28;20099;-61
2021/10/28 00:38:08;;;;;;;15.27;7.75;;;;;;;8.24;100.00;99717.69;5006306;28;20176;-61
2021/10/28 00:40:54;;;;;;;14.13;7.65;;;;;;;8.17;100.00;99702.78;5017013;28;20087;-62
2021/10/28 00:43:56;;;;;;;14.75;7.75;;;;;;;8.17;100.00;99705.44;5008617;28;20057;-62
2021/10/28 00:46:43;;;;;;;16.00;8.35;;;;;;;8.13;100.00;99701.06;5024214;28;20143;-59
2021/10/28 00:49:29;;;;;;;16.40;8.40;;;;;;;8.07;100.00;99677.38;5025568;28;20053;-56
2021/10/28 00:52:13;;;;;;;16.23;8.35;;;;;;;8.28;100.00;99678.91;5022051;28;20078;-58
2021/10/28 00:54:58;;;;;;;12.90;8.05;;;;;;;8.28;100.00;99671.00;5008061;28;20072;-61
2021/10/28 00:57:44;;;;;;;15.40;7.57;;;;;;;8.30;100.00;99661.28;5011298;28;20048;-61
2021/10/28 01:00:29;;;;;;;14.98;8.45;;;;;;;8.35;100.00;99659.47;5009450;28;20354;-60
2021/10/28 01:03:14;;;;;;;14.82;8.07;;;;;;;8.38;100.00;99657.66;5025760;28;20049;-61
2021/10/28 01:06:01;;;;;;;16.65;7.75;;;;;;;8.22;100.00;99657.84;5027402;28;20512;-58
2021/10/28 01:08:48;;;;;;;14.35;7.70;;;;;;;8.17;100.00;99654.38;5028279;28;20107;-59
2021/10/28 01:11:33;;;;;;;13.52;7.25;;;;;;;8.04;100.00;99648.34;5033574;28;20099;-66
2021/10/28 01:14:18;;;;;;;15.30;8.38;;;;;;;8.10;100.00;99647.41;5020855;28;20057;-60
2021/10/28 01:17:02;;;;;;;15.93;8.45;;;;;;;7.94;100.00;99644.09;5012453;28;20055;-58
2021/10/28 01:19:52;;;;;;;14.88;8.23;;;;;;;8.01;100.00;99635.22;5026460;28;20717;-58
2021/10/28 01:22:43;;;;;;;14.38;8.52;;;;;;;8.06;100.00;99629.84;5027408;28;20052;-59
2021/10/28 01:25:28;;;;;;;16.90;8.00;;;;;;;8.21;100.00;99627.94;5026325;28;20099;-59
2021/10/28 01:28:20;;;;;;;15.30;8.55;;;;;;;8.23;100.00;99627.94;5042914;28;20083;-66
2021/10/28 01:31:08;;;;;;;18.42;8.30;;;;;;;8.18;100.00;99621.78;5028376;28;20139;-62
2021/10/28 01:33:54;;;;;;;14.75;8.48;;;;;;;8.15;100.00;99619.19;5028030;28;20464;-60
2021/10/28 01:36:42;;;;;;;14.13;7.65;;;;;;;8.14;100.00;99605.09;5026720;28;20052;-67
2021/10/28 01:39:26;;;;;;;18.83;8.70;;;;;;;8.08;100.00;99612.25;5021952;28;20048;-63
2021/10/28 01:42:11;;;;;;;14.10;8.23;;;;;;;7.82;100.00;99596.72;5020204;28;20115;-66
2021/10/28 01:44:56;;;;;;;16.63;8.38;;;;;;;7.88;100.00;99601.91;5039510;28;20080;-60
2021/10/28 01:47:40;;;;;;;15.50;8.05;;;;;;;7.99;100.00;99602.66;5025833;28;20723;-67
2021/10/28 01:50:28;;;;;;;11.93;7.55;;;;;;;8.15;100.00;99591.00;4992452;28;20064;-63
2021/10/28 01:53:15;;;;;;;17.48;8.13;;;;;;;7.90;100.00;99592.22;5014694;28;20175;-61
2021/10/28 01:55:59;;;;;;;13.80;8.00;;;;;;;8.04;100.00;99579.69;5010774;28;20056;-64
2021/10/28 01:58:44;;;;;;;14.60;8.32;;;;;;;8.16;100.00;99584.81;5024655;28;20095;-59
2021/10/28 02:01:28;;;;;;;15.48;8.43;;;;;;;7.99;100.00;99567.47;5008757;28;20048;-63
2021/10/28 02:04:17;;;;;;;15.38;7.68;;;;;;;7.86;100.00;99568.50;5017719;28;20124;-62
2021/10/28 02:07:01;;;;;;;14.32;7.97;;;;;;;7.80;100.00;99560.69;5008638;28;20792;-62
2021/10/28 02:09:45;;;;;;;12.45;8.27;;;;;;;7.80;100.00;99558.88;5022349;28;20069;-63
2021/10/28 02:12:31;;;;;;;15.13;8.02;;;;;;;7.81;100.00;99546.59;5018172;28;20052;-60
2021/10/28 02:15:19;;;;;;;13.02;8.00;;;;;;;7.92;100.00;99561.38;4992792;28;20467;-63
2021/10/28 02:18:04;;;;;;;14.43;8.70;;;;;;;7.97;100.00;99550.78;5018517;28;20080;-60
2021/10/28 02:20:49;;;;;;;16.00;8.45;;;;;;;7.92;100.00;99545.53;5001917;28;20112;-61
2021/10/28 02:23:34;;;;;;;17.65;8.15;;;;;;;7.82;100.00;99549.22;5019041;28;20171;-65
2021/10/28 02:26:19;;;;;;;15.18;8.23;;;;;;;7.87;100.00;99552.66;5024358;28;20076;-62
2021/10/28 02:29:06;;;;;;;14.90;8.50;;;;;;;7.82;100.00;99541.28;5026788;28;20183;-65
2021/10/28 02:31:51;;;;;;;17.38;8.95;;;;;;;7.82;100.00;99536.00;5024821;28;20076;-63
2021/10/28 02:34:37;;;;;;;17.00;9.00;;;;;;;7.74;100.00;99529.97;5023998;28;20590;-63
2021/10/28 02:37:24;;;;;;;14.45;8.23;;;;;;;7.69;100.00;99533.53;5026173;28;20056;-60
2021/10/28 02:40:10;;;;;;;16.30;8.63;;;;;;;7.62;100.00;99527.47;5016483;28;20087;-62
2021/10/28 02:42:55;;;;;;;14.95;9.38;;;;;;;7.71;100.00;99519.44;5020246;28;20056;-61
2021/10/28 02:45:41;;;;;;;16.90;8.63;;;;;;;7.69;100.00;99515.97;5026257;28;20507;-60
2021/10/28 02:48:25;;;;;;;19.83;9.32;;;;;;;7.68;100.00;99508.06;5009013;28;20420;-63
2021/10/28 02:51:10;;;;;;;17.42;9.88;;;;;;;7.61;100.00;99483.53;5010637;28;20301;-65
2021/10/28 02:53:54;;;;;;;15.70;9.20;;;;;;;7.54;100.00;99492.38;5009026;28;20045;-60
2021/10/28 02:56:39;;;;;;;19.23;9.57;;;;;;;7.60;100.00;99502.00;5029268;28;20053;-62
2021/10/28 02:59:24;;;;;;;17.70;9.55;;;;;;;7.59;100.00;99489.69;5024886;28;20056;-62
2021/10/28 03:02:08;;;;;;;18.60;9.98;;;;;;;7.54;100.00;99483.59;5025883;28;20087;-59
2021/10/28 03:04:54;;;;;;;17.83;9.25;;;;;;;7.62;100.00;99479.09;5010941;28;20043;-60
2021/10/28 03:07:38;;;;;;;16.17;8.93;;;;;;;7.58;100.00;99478.28;5024189;28;20590;-68
2021/10/28 03:10:24;;;;;;;19.70;8.95;;;;;;;7.68;100.00;99464.03;4995798;28;20072;-61
2021/10/28 03:13:09;;;;;;;20.10;10.52;;;;;;;7.64;100.00;99456.22;5020522;28;20060;-60
2021/10/28 03:15:56;;;;;;;23.95;9.90;;;;;;;7.66;100.00;99451.78;5025497;28;20133;-63
2021/10/28 03:27:51;;;;;;;23.88;12.00;;;;;;;7.50;100.00;99424.75;5026689;28;20040;-71
2021/10/28 03:30:36;;;;;;;21.48;12.02;;;;;;;7.35;100.00;99410.84;5029963;28;20053;-63
2021/10/28 03:33:23;;;;;;;20.80;12.15;;;;;;;7.46;100.00;99414.22;5012449;28;20099;-60
2021/10/28 03:36:13;;;;;;;21.75;12.18;;;;;;;7.41;100.00;99419.59;5013533;28;20536;-60
2021/10/28 03:39:10;;;;;;;24.90;13.27;;;;;;;7.33;100.00;99408.28;5013735;28;20122;-61
2021/10/28 03:42:28;;;;;;;21.73;13.75;;;;;;;7.37;100.00;99409.97;4983111;28;20133;-59
2021/10/28 04:29:33;;;;;;;18.85;10.45;;;;;;;7.41;100.00;99381.78;5030565;28;20076;-62
2021/10/28 04:32:18;;;;;;;18.60;10.57;;;;;;;7.50;100.00;99393.09;4993874;28;20057;-61
2021/10/28 04:35:03;;;;;;;18.75;11.05;;;;;;;7.40;100.00;99396.72;5023276;28;20056;-62
2021/10/28 04:37:48;;;;;;;21.23;10.82;;;;;;;7.44;100.00;99397.56;5017309;28;20154;-60
2021/10/28 04:40:33;;;;;;;20.38;10.98;;;;;;;7.47;100.00;99379.94;5023990;28;20059;-61
2021/10/28 04:43:17;;;;;;;19.02;11.02;;;;;;;7.58;100.00;99396.50;5022825;28;20057;-58
2021/10/28 04:46:03;;;;;;;19.63;10.45;;;;;;;7.59;100.00;99384.16;5008239;28;20099;-66
2021/10/28 04:48:49;;;;;;;16.77;9.60;;;;;;;7.48;100.00;99373.75;5029854;28;20091;-65
2021/10/28 04:51:35;;;;;;;20.08;11.00;;;;;;;7.65;100.00;99384.06;5017381;28;20133;-59
2021/10/28 04:54:20;;;;;;;16.33;9.45;;;;;;;7.63;100.00;99386.72;5013817;28;20048;-57
2021/10/28 04:57:06;;;;;;;16.92;9.82;;;;;;;7.70;100.00;99374.31;5022129;28;20095;-60
2021/10/28 04:59:50;;;;;;;16.73;9.95;;;;;;;7.74;100.00;99378.66;5011101;28;20052;-67
2021/10/28 05:02:35;;;;;;;16.55;9.52;;;;;;;7.73;100.00;99393.63;5025321;28;20138;-65
2021/10/28 05:05:19;;;;;;;13.88;8.80;;;;;;;7.72;100.00;99373.41;5024328;28;20056;-62
2021/10/28 05:08:04;;;;;;;19.50;9.80;;;;;;;7.86;100.00;99378.47;5025658;28;20068;-66
2021/10/28 05:10:49;;;;;;;15.82;9.32;;;;;;;7.85;100.00;99377.63;5024318;28;20048;-64
2021/10/28 05:13:34;;;;;;;15.32;10.38;;;;;;;7.94;100.00;99374.81;5035022;28;20107;-64
2021/10/28 05:16:18;;;;;;;16.63;9.32;;;;;;;7.95;100.00;99358.06;5009765;28;20055;-64
2021/10/28 05:19:03;;;;;;;16.35;8.77;;;;;;;8.11;100.00;99380.69;5025981;28;20080;-64
2021/10/28 05:21:48;;;;;;;14.05;8.40;;;;;;;8.11;100.00;99377.19;5003350;28;20067;-62
2021/10/28 05:24:34;;;;;;;15.75;8.60;;;;;;;8.06;100.00;99379.03;5023317;28;20052;-63
2021/10/28 05:27:18;;;;;;;13.05;8.13;;;;;;;8.12;100.00;99377.16;5026934;28;20107;-63
2021/10/28 05:30:05;;;;;;;14.55;9.18;;;;;;;8.02;100.00;99372.03;5022144;28;20126;-63
2021/10/28 05:32:49;;;;;;;16.35;9.00;;;;;;;8.06;100.00;99379.91;5026988;28;20180;-63
2021/10/28 05:35:34;;;;;;;12.27;7.93;;;;;;;8.22;100.00;99377.91;5015088;28;20052;-67
2021/10/28 05:38:19;;;;;;;13.80;8.40;;;;;;;8.42;100.00;99379.31;5024754;28;20048;-72
2021/10/28 05:41:04;;;;;;;14.38;9.63;;;;;;;8.35;100.00;99375.03;5015199;28;20512;-64
2021/10/28 05:43:48;;;;;;;13.38;8.88;;;;;;;8.48;100.00;99383.63;4994536;28;20122;-66
2021/10/28 05:46:33;;;;;;;15.05;8.30;;;;;;;8.37;100.00;99356.50;5026059;28;20045;-67
2021/10/28 05:49:18;;;;;;;11.57;8.02;;;;;;;8.41;100.00;99381.97;5016777;28;20167;-65
2021/10/28 05:52:03;;;;;;;13.63;8.55;;;;;;;8.35;100.00;99382.09;5026037;28;20106;-64
2021/10/28 05:54:47;;;;;;;15.63;9.15;;;;;;;8.27;100.00;99376.09;5026131;28;20115;-66
2021/10/28 05:57:33;;;;;;;12.07;8.68;;;;;;;8.39;100.00;99373.22;5022932;28;20144;-66
2021/10/28 06:00:20;;;;;;;16.42;8.77;;;;;;;8.37;100.00;99375.88;5024499;28;20084;-65
2021/10/28 06:03:05;;;;;;;17.13;9.50;;;;;;;8.33;100.00;99368.03;5024088;28;20056;-63
2021/10/28 06:05:50;;;;;;;15.00;8.57;;;;;;;8.46;100.00;99365.16;5023913;28;20044;-63
2021/10/28 06:08:34;;;;;;;15.32;8.60;;;;;;;8.59;100.00;99369.31;5024443;28;20061;-62
2021/10/28 06:11:19;;;;;;;17.73;10.98;;;;;;;8.61;100.00;99364.88;5025853;28;20163;-62
2021/10/28 06:14:03;;;;;;;11.65;8.23;;;;;;;8.44;100.00;99360.78;4991174;28;20172;-62
2021/10/28 06:16:53;;;;;;;15.50;8.02;;;;;;;8.51;100.00;99360.66;5012121;28;20047;-70
2021/10/28 06:19:38;;;;;;;12.90;7.72;;;;;;;8.52;100.00;99358.88;5024480;28;20514;-62
2021/10/28 06:22:23;;;;;;;12.43;7.97;;;;;;;8.66;100.00;99365.66;5032395;28;20100;-62
2021/10/28 06:25:09;;;;;;;12.38;7.68;;;;;;;8.77;100.00;99360.16;5024501;28;20091;-70
2021/10/28 06:27:54;;;;;;;11.18;7.25;;;;;;;8.65;100.00;99353.34;5026032;28;20052;-63
2021/10/28 06:30:39;;;;;;;10.65;6.90;;;;;;;8.79;100.00;99356.56;5027245;28;20052;-64
2021/10/28 06:33:29;;;;;;;11.65;7.13;;;;;;;8.83;100.00;99358.25;5033245;28;20509;-63
2021/10/28 06:36:23;;;;;;;13.55;7.10;;;;;;;8.89;100.00;99365.22;5023296;28;20155;-69
2021/10/28 06:39:10;;;;;;;10.50;6.57;;;;;;;8.98;100.00;99367.69;5011743;28;20099;-63
2021/10/28 06:41:55;;;;;;;11.27;7.20;;;;;;;9.18;100.00;99368.16;5030817;28;20040;-65
2021/10/28 06:44:41;;;;;;;13.65;6.97;;;;;;;9.29;100.00;99364.38;5024478;28;20069;-69
2021/10/28 06:47:26;;;;;;;13.20;6.65;;;;;;;9.26;100.00;99366.22;5025302;28;20531;-65
2021/10/28 06:50:15;;;;;;;8.05;5.63;;;;;;;9.16;100.00;99378.75;5008961;28;20056;-63
2021/10/28 06:53:22;;;;;;;11.23;5.72;;;;;;;9.06;100.00;99357.81;5019678;28;20048;-64
2021/10/28 07:05:04;;;;;;;7.68;5.78;;;;;;;9.16;100.00;99377.88;5007772;28;20521;-65
2021/10/28 07:07:48;;;;;;;10.20;6.07;;;;;;;9.29;100.00;99377.59;4998312;28;20079;-63
2021/10/28 07:10:35;;;;;;;9.07;5.90;;;;;;;9.31;100.00;99377.56;5015671;28;20060;-65
2021/10/28 07:13:23;;;;;;;9.77;6.00;;;;;;;9.35;100.00;99382.72;5016625;28;20458;-64
2021/10/28 07:16:14;;;;;;;7.82;5.63;;;;;;;9.46;100.00;99375.44;5017823;28;20520;-63
2021/10/28 08:21:47;;;;;;;10.65;6.18;;;;;;;9.62;100.00;99380.41;4960200;28;20179;-64
2021/10/28 08:28:40;;;;;;;10.10;6.75;;;;;;;9.67;100.00;99375.88;4949145;28;20086;-62
2021/10/28 08:30:42;;;;;;;12.43;7.65;;;;;;;9.72;100.00;99398.69;4946276;28;20054;-66
2021/10/28 08:33:26;;;;;;;14.05;7.85;;;;;;;9.78;100.00;99392.38;4964309;28;20081;-64
2021/10/28 08:36:12;;;;;;;;;;;;;;;9.82;100.00;99394.06;4959920;28;20104;-62
2021/10/28 08:38:58;;;;;;;;;;;;;;;9.78;100.00;99401.22;4962088;28;19969;-65
2021/10/28 08:41:45;;;;;;;16.13;7.87;;;;;;;9.80;100.00;99399.38;4969455;28;19964;-62
2021/10/28 08:44:32;;;;;;;13.93;8.23;;;;;;;9.83;100.00;99390.50;4970372;28;20113;-64
2021/10/28 08:47:19;;;;;;;13.02;7.80;;;;;;;9.93;100.00;99397.34;5004873;28;20122;-63
2021/10/28 08:50:10;;;;;;;15.80;7.95;;;;;;;9.97;100.00;99396.38;5020236;28;20227;-64
2021/10/28 08:56:06;;;;;;;17.05;8.52;;;;;;;10.10;100.00;99403.13;5024738;28;20484;-63
2021/10/28 09:23:58;;;;;;;7.93;4.30;;;;;;;10.44;100.00;99415.50;5008897;28;20125;-63
2021/10/28 09:26:57;;;;;;;7.47;4.65;;;;;;;10.58;100.00;99421.34;5009367;28;20052;-64
2021/10/28 09:33:11;;;;;;;6.78;4.53;;;;;;;10.77;100.00;99419.09;5018837;28;20867;-63
2021/10/28 09:43:34;;;;;;;7.80;4.47;;;;;;;10.87;100.00;99418.81;5015394;28;20176;-65
2021/10/28 09:45:25;;;;;;;;;;;;;;;11.46;100.00;99433.94;4984385;28;20160;-59
2021/10/28 09:51:42;;;;;;;5.57;3.30;;;;;;;11.69;100.00;99431.50;4982714;28;20093;-63
2021/10/28 09:54:41;;;;;;;6.43;3.78;;;;;;;11.72;100.00;99428.78;4982074;28;20093;-63
2021/10/28 09:57:50;;;;;;;5.07;2.78;;;;;;;11.75;100.00;99438.44;4987582;28;20062;-65
2021/10/28 10:00:40;;;;;;;4.20;2.53;;;;;;;11.74;100.00;99437.56;4981641;28;20211;-64
2021/10/28 10:03:28;;;;;;;7.15;3.05;;;;;;;11.90;100.00;99445.91;4980639;28;20187;-68
2021/10/28 10:06:25;;;;;;;6.15;2.90;;;;;;;12.14;100.00;99439.84;5043280;22;20047;-67
2021/10/28 10:09:11;;;;;;;6.13;2.85;;;;;;;12.25;100.00;99445.69;5047958;28;20126;-65
2021/10/28 10:11:56;;;;;;;5.03;2.90;;;;;;;12.31;100.00;99438.38;5038862;28;20057;-63
2021/10/28 10:14:43;;;;;;;7.32;3.10;;;;;;;12.30;100.00;99451.75;5036290;28;20052;-71
2021/10/28 10:17:28;;;;;;;6.75;2.20;;;;;;;12.36;100.00;99436.47;5023458;28;20060;-63
2021/10/28 10:20:14;;;;;;;3.75;1.88;;;;;;;12.47;100.00;99450.25;5050831;28;20582;-66
2021/10/28 10:26:48;;;;;;;1.85;1.40;;;;;;;13.37;100.00;99448.94;5002889;28;20129;-74
2021/10/28 10:29:58;;;;;;;2.35;1.70;;;;;;;14.49;100.00;99465.03;4984951;28;20076;-65
2021/10/28 11:28:39;;;;;;;1.90;1.10;;;;;;;14.83;100.00;99528.56;5040014;28;20064;-65
2021/10/28 11:32:08;;;;;;;2.88;1.17;;;;;;;14.72;100.00;99538.81;5040138;28;20075;-68
2021/10/28 12:22:20;;;;;;;2.97;1.10;;;;;;;14.66;100.00;99613.78;5060240;28;20106;-70
2021/10/28 12:43:49;;;;;;;5.00;1.30;;;;;;;13.93;100.00;99661.81;5045293;28;20535;-61
2021/10/28 12:56:06;;;;;;;2.47;1.15;;;;;;;13.58;100.00;99694.09;5046840;28;20074;-64
2021/10/28 13:54:28;;;;;;;2.95;1.20;;;;;;;12.71;100.00;99815.75;4924146;29;20131;-56
2021/10/28 14:17:03;;;;;;;6.13;1.30;;;;;;;12.26;100.00;99875.47;4854696;29;20117;-62
2021/10/28 14:34:27;;;;;;;5.22;1.20;;;;;;;12.08;100.00;99939.72;4980152;28;20061;-62
2021/10/28 15:28:58;;;;;;;2.13;1.33;;;;;;;11.90;100.00;100088.91;5048984;28;20189;-65
2021/10/28 15:53:01;;;;;;;2.42;0.93;;;;;;;11.59;100.00;100144.38;5020430;28;20107;-69
2021/10/28 15:56:24;;;;;;;2.75;0.98;;;;;;;11.62;100.00;100144.38;5006949;28;20096;-63
2021/10/28 16:24:13;;;;;;;2.50;0.93;;;;;;;11.29;100.00;100215.72;4953463;28;20110;-66
2021/10/28 16:27:00;;;;;;;3.13;1.10;;;;;;;11.34;100.00;100236.00;4960424;28;20066;-65
2021/10/28 16:29:44;;;;;;;1.75;0.93;;;;;;;11.28;100.00;100238.72;4961497;28;20129;-63
2021/10/28 16:32:28;;;;;;;1.55;0.82;;;;;;;11.13;100.00;100256.69;4964111;28;20069;-65
2021/10/28 16:35:14;;;;;;;1.90;0.60;;;;;;;11.10;100.00;100257.59;4934521;28;20105;-70
2021/10/28 16:38:00;;;;;;;2.83;0.70;;;;;;;11.13;100.00;100261.97;4936010;29;20069;-67
2021/10/28 16:40:46;;;;;;;3.00;1.15;;;;;;;10.95;100.00;100271.09;4940917;28;20126;-63
2021/10/28 16:43:30;;;;;;;1.58;0.70;;;;;;;10.90;100.00;100256.13;5004381;28;20473;-63
2021/10/28 16:59:10;;;;;;;2.70;0.60;;;;;;;10.78;100.00;100325.25;4690497;22;20245;-71
2021/10/28 17:01:55;;;;;;;0.98;0.55;;;;;;;10.70;100.00;100337.72;5027530;28;20056;-61
2021/10/28 17:04:45;;;;;;;;;;;;;;;10.75;100.00;100358.00;5025812;28;20099;-61
2021/10/28 17:07:30;;;;;;;3.53;0.80;;;;;;;10.83;100.00;100358.78;5004240;28;19923;-65
2021/10/28 17:10:15;;;;;;;2.53;0.82;;;;;;;10.78;100.00;100367.69;5011748;28;20096;-63
2021/10/28 17:13:03;;;;;;;3.85;1.75;;;;;;;10.71;100.00;100366.00;5025982;28;20064;-69
2021/10/28 17:15:48;;;;;;;2.17;1.10;;;;;;;10.73;100.00;100377.47;5022740;28;20057;-64
2021/10/28 17:18:32;;;;;;;1.92;0.95;;;;;;;10.73;100.00;100378.38;5016768;28;20052;-67
2021/10/28 17:21:16;;;;;;;1.85;1.10;;;;;;;10.69;100.00;100374.00;5022948;28;20087;-65
2021/10/28 17:24:08;;;;;;;1.23;0.70;;;;;;;10.75;100.00;100386.28;5014892;28;20056;-63
2021/10/28 17:26:53;;;;;;;1.85;0.80;;;;;;;10.74;100.00;100392.50;5007599;28;20516;-66
2021/10/28 17:29:39;;;;;;;1.33;0.68;;;;;;;10.68;100.00;100395.22;5020194;28;20045;-64
2021/10/28 17:32:25;;;;;;;2.13;0.80;;;;;;;10.72;100.00;100407.56;5025696;28;20115;-62
2021/10/28 17:35:11;;;;;;;1.27;0.63;;;;;;;10.70;100.00;100399.63;5024818;28;20099;-67
2021/10/28 17:38:00;;;;;;;1.13;0.50;;;;;;;10.68;100.00;100398.72;5006998;28;20132;-65
2021/10/28 17:40:47;;;;;;;2.08;0.63;;;;;;;10.58;100.00;100401.50;5021791;28;20056;-71
2021/10/28 17:43:33;;;;;;;0.93;0.50;;;;;;;10.56;100.00;100403.31;5022180;28;20060;-60
2021/10/28 17:46:18;;;;;;;2.20;0.70;;;;;;;10.50;100.00;100409.53;5023262;28;20136;-62
2021/10/28 17:49:03;;;;;;;3.88;0.85;;;;;;;10.56;100.00;100409.47;5026666;28;20071;-65
2021/10/28 17:51:48;;;;;;;1.42;0.60;;;;;;;10.58;100.00;100399.75;5010939;28;20092;-63
2021/10/28 17:54:36;;;;;;;1.48;0.80;;;;;;;10.65;100.00;100397.91;5011268;28;20047;-63
2021/10/28 17:57:21;;;;;;;1.55;0.70;;;;;;;10.49;100.00;100402.50;5023318;28;20153;-66
2021/10/28 18:00:07;;;;;;;1.70;0.65;;;;;;;10.55;100.00;100407.72;5020423;28;20104;-72
2021/10/28 18:02:55;;;;;;;2.63;0.90;;;;;;;10.46;100.00;100410.47;5019856;28;20091;-61
2021/10/28 18:05:41;;;;;;;2.40;1.00;;;;;;;10.44;100.00;100417.53;5017722;28;20460;-62
2021/10/28 18:08:25;;;;;;;1.80;0.85;;;;;;;10.50;100.00;100416.59;5025747;28;20060;-60
2021/10/28 18:11:14;;;;;;;3.95;1.15;;;;;;;10.61;100.00;100434.19;5004206;28;20441;-62
2021/10/28 18:14:00;;;;;;;2.55;1.00;;;;;;;10.60;100.00;100423.59;5025034;28;20056;-70
2021/10/28 18:16:50;;;;;;;1.45;0.93;;;;;;;10.54;100.00;100421.00;5023855;28;20044;-65
2021/10/28 18:19:35;;;;;;;7.43;1.20;;;;;;;10.56;100.00;100438.63;5020288;28;20160;-68
2021/10/28 18:22:23;;;;;;;1.90;1.05;;;;;;;10.65;100.00;100441.22;5013667;28;20053;-67
2021/10/28 18:25:10;;;;;;;4.40;0.82;;;;;;;10.70;100.00;100454.44;5020340;28;20100;-67
2021/10/28 18:27:57;;;;;;;1.60;0.90;;;;;;;10.70;100.00;100455.31;5010997;28;20095;-63
2021/10/28 18:30:41;;;;;;;3.28;0.90;;;;;;;10.76;100.00;100472.94;5026504;28;20107;-62
2021/10/28 18:33:26;;;;;;;8.23;1.10;;;;;;;10.62;100.00;100483.69;5024071;28;20091;-64
2021/10/28 18:36:12;;;;;;;3.05;1.00;;;;;;;10.57;100.00;100481.97;5014207;28;20072;-64
2021/10/28 18:38:58;;;;;;;1.25;0.82;;;;;;;10.59;100.00;100482.81;5028867;28;20068;-60
2021/10/28 18:41:46;;;;;;;3.20;1.10;;;;;;;10.66;100.00;100496.03;5011850;28;20052;-71
2021/10/28 18:44:32;;;;;;;6.05;1.20;;;;;;;10.68;100.00;100501.31;5013421;28;20653;-65
2021/10/28 18:47:16;;;;;;;1.98;1.15;;;;;;;10.57;100.00;100509.38;5027993;28;20052;-60
2021/10/28 18:50:02;;;;;;;;;;;;;;;10.64;100.00;100520.81;5025768;28;20048;-64
2021/10/28 18:52:48;;;;;;;3.35;1.20;;;;;;;10.47;100.00;100520.03;5025445;28;20098;-59
2021/10/28 18:55:32;;;;;;;3.95;1.63;;;;;;;10.47;100.00;100530.63;4994555;28;20413;-66
2021/10/28 18:58:17;;;;;;;;;;;;;;;10.40;100.00;100537.75;5008530;28;20606;-62
2021/10/28 19:01:03;;;;;;;4.18;1.80;;;;;;;10.33;100.00;100557.28;5021096;28;19931;-72
2021/10/28 19:03:51;;;;;;;2.33;1.75;;;;;;;10.46;100.00;100556.28;4991019;28;20073;-65
2021/10/28 19:06:43;;;;;;;2.28;1.85;;;;;;;10.53;100.00;100555.38;5023867;28;20139;-66
2021/10/28 19:09:31;;;;;;;2.67;1.73;;;;;;;10.49;100.00;100574.84;5011445;28;20531;-62
2021/10/28 19:12:15;;;;;;;5.32;2.33;;;;;;;10.50;100.00;100570.41;5010173;28;20436;-63
2021/10/28 19:15:00;;;;;;;3.85;2.17;;;;;;;10.52;100.00;100572.16;5023741;28;20045;-58
2021/10/28 19:17:47;;;;;;;4.15;2.20;;;;;;;10.55;100.00;100569.47;5023342;28;20052;-72
2021/10/28 19:20:36;;;;;;;4.45;2.30;;;;;;;10.64;100.00;100566.75;5000424;28;20091;-66
2021/10/28 19:23:22;;;;;;;3.83;2.20;;;;;;;10.67;100.00;100571.16;5023828;28;20072;-64
2021/10/28 19:26:12;;;;;;;6.07;2.20;;;;;;;10.71;100.00;100570.22;5018101;28;20132;-64
2021/10/28 19:28:58;;;;;;;6.40;2.58;;;;;;;10.71;100.00;100568.47;5022202;28;20527;-60
2021/10/28 19:31:53;;;;;;;8.13;2.90;;;;;;;10.65;100.00;100575.59;5022786;28;20110;-60
2021/10/28 19:34:40;;;;;;;3.75;2.67;;;;;;;10.68;100.00;100589.69;4998535;28;20489;-63
2021/10/28 19:46:10;;;;;;;5.45;3.30;;;;;;;10.60;100.00;100599.50;5018958;28;20056;-63
2021/10/28 19:48:56;;;;;;;6.10;2.65;;;;;;;10.57;100.00;100593.34;5024842;28;20052;-61
2021/10/28 19:51:43;;;;;;;7.05;2.60;;;;;;;10.63;100.00;100603.88;5010882;28;20056;-62
2021/10/28 19:54:28;;;;;;;5.32;3.03;;;;;;;10.68;100.00;100608.28;5005813;28;20044;-64
2021/10/28 19:57:18;;;;;;;6.82;2.72;;;;;;;10.79;100.00;100613.50;5008845;28;20048;-66
2021/10/28 20:00:21;;;;;;;5.40;2.90;;;;;;;10.73;100.00;100624.16;5005148;28;20079;-62
2021/10/28 20:21:11;;;;;;;3.83;2.00;;;;;;;10.54;100.00;100649.94;4965272;28;20085;-62
2021/10/28 20:23:56;;;;;;;2.60;1.60;;;;;;;10.60;100.00;100646.38;4947159;28;20050;-66
2021/10/28 20:26:41;;;;;;;3.58;1.88;;;;;;;10.70;100.00;100637.44;4965263;28;20138;-63
2021/10/28 20:29:26;;;;;;;2.42;1.55;;;;;;;10.75;100.00;100641.81;4949521;28;20610;-62
2021/10/28 20:32:11;;;;;;;2.78;1.45;;;;;;;10.68;100.00;100648.06;4966374;28;20093;-68
2021/10/28 20:38:00;;;;;;;3.20;1.80;;;;;;;10.59;100.00;100666.69;4964922;28;20581;-66
2021/10/28 20:40:46;;;;;;;3.30;1.50;;;;;;;10.72;100.00;100659.56;4966795;28;20181;-63
2021/10/28 20:43:35;;;;;;;4.38;1.77;;;;;;;10.72;100.00;100662.19;4949960;28;20090;-63
2021/10/28 20:46:21;;;;;;;3.55;1.90;;;;;;;10.74;100.00;100647.13;4963431;28;20053;-73
2021/10/28 20:49:07;;;;;;;6.07;2.00;;;;;;;10.80;100.00;100652.41;4967716;28;20069;-64
2021/10/28 20:51:57;;;;;;;3.65;2.40;;;;;;;10.83;100.00;100663.00;4951702;28;20113;-64
2021/10/28 20:54:44;;;;;;;3.58;2.10;;;;;;;10.79;100.00;100667.44;4983228;28;20056;-63
2021/10/28 20:57:30;;;;;;;5.18;2.10;;;;;;;10.67;100.00;100664.88;5008762;28;20137;-66
2021/10/28 21:00:18;;;;;;;5.45;2.58;;;;;;;10.74;100.00;100677.22;5010435;28;20078;-75
2021/10/28 21:03:03;;;;;;;4.22;2.10;;;;;;;10.81;100.00;100678.94;5007717;28;20049;-63
2021/10/28 21:05:48;;;;;;;4.00;2.50;;;;;;;10.81;100.00;100675.41;5024630;28;20048;-62
2021/10/28 21:08:32;;;;;;;5.38;2.72;;;;;;;10.73;100.00;100670.16;5019805;28;20791;-67
2021/10/28 21:11:18;;;;;;;5.50;2.35;;;;;;;10.88;100.00;100679.78;5016047;28;20151;-63
2021/10/28 21:14:07;;;;;;;5.00;2.70;;;;;;;10.96;100.00;100680.59;5024047;28;20155;-65
2021/10/28 21:16:52;;;;;;;6.95;2.42;;;;;;;10.94;100.00;100685.03;5008171;28;20052;-66
2021/10/28 21:19:37;;;;;;;6.28;3.08;;;;;;;10.91;100.00;100682.41;5016464;28;20416;-65
2021/10/28 21:22:23;;;;;;;5.75;3.97;;;;;;;10.96;100.00;100696.53;5020252;28;20060;-66
2021/10/28 21:25:11;;;;;;;6.10;3.03;;;;;;;10.98;100.00;100702.69;5020286;28;20846;-65
2021/10/28 21:27:58;;;;;;;5.47;2.97;;;;;;;11.01;100.00;100700.03;5021535;28;20525;-67
2021/10/28 21:30:47;;;;;;;4.85;2.65;;;;;;;11.07;100.00;100705.31;5009345;28;20192;-66
2021/10/28 21:33:41;;;;;;;5.53;2.95;;;;;;;11.15;100.00;100703.47;4997419;28;20763;-65
2021/10/28 21:36:28;;;;;;;6.88;2.90;;;;;;;11.03;100.00;100715.03;5025159;28;20575;-66
2021/10/28 21:39:19;;;;;;;4.97;2.80;;;;;;;11.03;100.00;100707.06;5007564;28;20091;-69
2021/10/28 21:42:12;;;;;;;4.47;2.78;;;;;;;11.05;100.00;100715.03;5016525;28;20529;-65
2021/10/28 21:44:59;;;;;;;3.47;2.63;;;;;;;11.00;100.00;100719.50;5006508;28;20045;-62
2021/10/28 21:47:48;;;;;;;6.78;3.40;;;;;;;10.88;100.00;100730.19;5023331;28;20060;-64
2021/10/28 21:50:36;;;;;;;6.53;3.50;;;;;;;10.80;100.00;100732.88;5009031;28;20099;-65
2021/10/28 21:53:21;;;;;;;6.15;3.20;;;;;;;10.88;100.00;100728.41;5018834;28;20061;-70
2021/10/28 22:02:18;;;;;;;9.10;3.42;;;;;;;10.85;100.00;100747.03;5018435;28;20096;-62
2021/10/28 22:26:24;;;;;;;5.67;2.30;;;;;;;10.91;100.00;100768.19;5027576;28;20107;-59
2021/10/28 22:29:10;;;;;;;5.43;2.63;;;;;;;10.88;100.00;100776.16;5021835;28;20083;-64
2021/10/28 22:31:58;;;;;;;4.50;2.78;;;;;;;10.95;100.00;100780.56;5027229;28;20060;-65